sensor_id;sensor_type;location;lat;lon;timestamp;P1;durP1;ratioP1;P2;durP2;ratioP2
13114;SDS011;6623;52.120;8.660;2024-03-23T00:55:31;1.23;;;1.00;;
13114;SDS011;6623;52.120;8.660;2024-03-23T00:57:57;1.87;;;1.27;;
13114;SDS011;6623;52.120;8.660;2024-03-23T01:00:22;1.30;;;1.03;;
13114;SDS011;6623;52.120;8.660;2024-03-23T01:02:48;1.10;;;0.93;;
13114;SDS011;6623;52.120;8.660;2024-03-23T01:05:13;1.67;;;1.00;;
13114;SDS011;6623;52.120;8.660;2024-03-23T01:07:39;1.93;;;1.17;;
13114;SDS011;6623;52.120;8.660;2024-03-23T01:10:05;1.60;;;1.10;;
13114;SDS011;6623;52.120;8.660;2024-03-23T01:12:30;1.43;;;1.10;;
13114;SDS011;6623;52.120;8.660;2024-03-23T01:14:56;1.20;;;1.00;;
13114;SDS011;6623;52.120;8.660;2024-03-23T01:17:21;1.50;;;1.10;;
13114;SDS011;6623;52.120;8.660;2024-03-23T01:19:47;1.77;;;1.10;;
13114;SDS011;6623;52.120;8.660;2024-03-23T01:22:12;1.10;;;1.00;;
13114;SDS011;6623;52.120;8.660;2024-03-23T01:24:38;1.63;;;0.90;;
13114;SDS011;6623;52.120;8.660;2024-03-23T01:27:03;1.47;;;0.90;;
13114;SDS011;6623;52.120;8.660;2024-03-23T01:29:29;1.30;;;1.10;;
13114;SDS011;6623;52.120;8.660;2024-03-23T01:31:55;1.80;;;1.10;;
13114;SDS011;6623;52.120;8.660;2024-03-23T01:34:20;2.00;;;1.00;;
13114;SDS011;6623;52.120;8.660;2024-03-23T01:36:46;2.17;;;1.00;;
13114;SDS011;6623;52.120;8.660;2024-03-23T01:39:12;1.33;;;1.20;;
13114;SDS011;6623;52.120;8.660;2024-03-23T01:41:39;1.17;;;0.90;;
13114;SDS011;6623;52.120;8.660;2024-03-23T01:44:07;1.00;;;0.90;;
13114;SDS011;6623;52.120;8.660;2024-03-23T01:46:33;1.40;;;1.10;;
13114;SDS011;6623;52.120;8.660;2024-03-23T01:48:59;1.77;;;1.07;;
13114;SDS011;6623;52.120;8.660;2024-03-23T01:51:25;1.63;;;0.90;;
13114;SDS011;6623;52.120;8.660;2024-03-23T01:53:52;1.47;;;0.93;;
13114;SDS011;6623;52.120;8.660;2024-03-23T01:56:19;1.27;;;0.90;;
13114;SDS011;6623;52.120;8.660;2024-03-23T01:58:45;1.50;;;1.17;;
13114;SDS011;6623;52.120;8.660;2024-03-23T02:01:11;1.80;;;1.10;;
13114;SDS011;6623;52.120;8.660;2024-03-23T02:03:37;0.97;;;0.87;;
13114;SDS011;6623;52.120;8.660;2024-03-23T02:06:02;1.77;;;1.00;;
13114;SDS011;6623;52.120;8.660;2024-03-23T02:08:28;1.40;;;0.90;;
13114;SDS011;6623;52.120;8.660;2024-03-23T02:10:55;1.57;;;0.90;;
13114;SDS011;6623;52.120;8.660;2024-03-23T02:13:21;1.40;;;0.97;;
13114;SDS011;6623;52.120;8.660;2024-03-23T02:15:46;1.53;;;0.93;;
13114;SDS011;6623;52.120;8.660;2024-03-23T02:18:13;1.60;;;1.00;;
13114;SDS011;6623;52.120;8.660;2024-03-23T02:20:38;1.67;;;1.17;;
13114;SDS011;6623;52.120;8.660;2024-03-23T02:23:04;1.87;;;1.07;;
13114;SDS011;6623;52.120;8.660;2024-03-23T02:25:33;1.47;;;1.03;;
13114;SDS011;6623;52.120;8.660;2024-03-23T02:27:59;1.23;;;1.03;;
13114;SDS011;6623;52.120;8.660;2024-03-23T02:30:25;1.30;;;1.00;;
13114;SDS011;6623;52.120;8.660;2024-03-23T02:32:51;1.20;;;1.00;;
13114;SDS011;6623;52.120;8.660;2024-03-23T02:35:17;1.00;;;0.80;;
13114;SDS011;6623;52.120;8.660;2024-03-23T02:37:42;0.97;;;0.87;;
13114;SDS011;6623;52.120;8.660;2024-03-23T02:40:08;1.27;;;0.90;;
13114;SDS011;6623;52.120;8.660;2024-03-23T02:42:34;1.43;;;1.07;;
13114;SDS011;6623;52.120;8.660;2024-03-23T02:44:59;1.47;;;0.87;;
13114;SDS011;6623;52.120;8.660;2024-03-23T02:47:25;1.40;;;1.00;;
13114;SDS011;6623;52.120;8.660;2024-03-23T02:49:50;1.20;;;0.93;;
13114;SDS011;6623;52.120;8.660;2024-03-23T02:52:16;1.53;;;0.97;;
13114;SDS011;6623;52.120;8.660;2024-03-23T02:54:41;1.13;;;0.90;;
13114;SDS011;6623;52.120;8.660;2024-03-23T02:57:10;1.57;;;1.00;;
13114;SDS011;6623;52.120;8.660;2024-03-23T02:59:36;1.80;;;0.90;;
13114;SDS011;6623;52.120;8.660;2024-03-23T03:02:01;0.97;;;0.80;;
13114;SDS011;6623;52.120;8.660;2024-03-23T03:04:29;1.17;;;0.90;;
13114;SDS011;6623;52.120;8.660;2024-03-23T03:06:55;1.23;;;1.00;;
13114;SDS011;6623;52.120;8.660;2024-03-23T03:09:20;1.47;;;1.00;;
13114;SDS011;6623;52.120;8.660;2024-03-23T03:11:46;1.30;;;0.93;;
13114;SDS011;6623;52.120;8.660;2024-03-23T03:14:11;1.50;;;1.10;;
13114;SDS011;6623;52.120;8.660;2024-03-23T03:16:37;1.23;;;0.90;;
13114;SDS011;6623;52.120;8.660;2024-03-23T03:19:02;1.10;;;0.90;;
13114;SDS011;6623;52.120;8.660;2024-03-23T03:21:28;1.10;;;0.80;;
13114;SDS011;6623;52.120;8.660;2024-03-23T03:23:54;1.73;;;1.33;;
13114;SDS011;6623;52.120;8.660;2024-03-23T03:26:21;1.30;;;0.90;;
13114;SDS011;6623;52.120;8.660;2024-03-23T03:28:47;1.00;;;0.80;;
13114;SDS011;6623;52.120;8.660;2024-03-23T03:31:16;1.10;;;1.00;;
13114;SDS011;6623;52.120;8.660;2024-03-23T03:33:43;1.20;;;1.10;;
13114;SDS011;6623;52.120;8.660;2024-03-23T03:36:10;1.30;;;1.00;;
13114;SDS011;6623;52.120;8.660;2024-03-23T03:38:36;1.50;;;0.97;;
13114;SDS011;6623;52.120;8.660;2024-03-23T03:41:01;1.00;;;0.90;;
13114;SDS011;6623;52.120;8.660;2024-03-23T03:43:27;1.67;;;1.00;;
13114;SDS011;6623;52.120;8.660;2024-03-23T03:45:56;1.27;;;1.03;;
13114;SDS011;6623;52.120;8.660;2024-03-23T03:48:22;1.03;;;0.80;;
13114;SDS011;6623;52.120;8.660;2024-03-23T03:50:48;1.50;;;1.10;;
13114;SDS011;6623;52.120;8.660;2024-03-23T03:53:14;0.87;;;0.80;;
13114;SDS011;6623;52.120;8.660;2024-03-23T03:55:40;2.30;;;0.90;;
13114;SDS011;6623;52.120;8.660;2024-03-23T03:58:05;1.20;;;0.97;;
13114;SDS011;6623;52.120;8.660;2024-03-23T04:00:31;1.67;;;1.00;;
13114;SDS011;6623;52.120;8.660;2024-03-23T04:02:56;1.27;;;0.90;;
13114;SDS011;6623;52.120;8.660;2024-03-23T04:05:22;1.30;;;0.90;;
13114;SDS011;6623;52.120;8.660;2024-03-23T04:07:48;1.10;;;0.90;;
13114;SDS011;6623;52.120;8.660;2024-03-23T04:10:14;1.00;;;0.90;;
13114;SDS011;6623;52.120;8.660;2024-03-23T04:12:40;1.57;;;0.80;;
13114;SDS011;6623;52.120;8.660;2024-03-23T04:15:06;1.67;;;1.13;;
13114;SDS011;6623;52.120;8.660;2024-03-23T04:17:32;1.10;;;0.90;;
13114;SDS011;6623;52.120;8.660;2024-03-23T04:19:59;1.40;;;1.00;;
13114;SDS011;6623;52.120;8.660;2024-03-23T04:22:25;1.03;;;0.90;;
13114;SDS011;6623;52.120;8.660;2024-03-23T04:24:54;1.27;;;0.90;;
13114;SDS011;6623;52.120;8.660;2024-03-23T04:27:20;1.00;;;0.90;;
13114;SDS011;6623;52.120;8.660;2024-03-23T04:29:50;1.27;;;0.87;;
13114;SDS011;6623;52.120;8.660;2024-03-23T04:32:16;0.80;;;0.80;;
13114;SDS011;6623;52.120;8.660;2024-03-23T04:34:42;0.90;;;0.80;;
13114;SDS011;6623;52.120;8.660;2024-03-23T04:37:08;1.50;;;1.07;;
13114;SDS011;6623;52.120;8.660;2024-03-23T04:39:35;1.20;;;1.10;;
13114;SDS011;6623;52.120;8.660;2024-03-23T04:42:01;1.27;;;1.10;;
13114;SDS011;6623;52.120;8.660;2024-03-23T04:44:27;1.97;;;0.90;;
13114;SDS011;6623;52.120;8.660;2024-03-23T04:46:53;2.23;;;0.80;;
13114;SDS011;6623;52.120;8.660;2024-03-23T04:49:18;1.60;;;1.20;;
13114;SDS011;6623;52.120;8.660;2024-03-23T04:51:44;1.07;;;0.90;;
13114;SDS011;6623;52.120;8.660;2024-03-23T04:54:11;1.27;;;0.90;;
13114;SDS011;6623;52.120;8.660;2024-03-23T04:56:37;1.37;;;1.00;;
13114;SDS011;6623;52.120;8.660;2024-03-23T04:59:02;1.10;;;0.90;;
13114;SDS011;6623;52.120;8.660;2024-03-23T05:01:30;1.63;;;1.00;;
13114;SDS011;6623;52.120;8.660;2024-03-23T05:03:58;1.47;;;0.90;;
13114;SDS011;6623;52.120;8.660;2024-03-23T05:06:24;1.10;;;0.80;;
13114;SDS011;6623;52.120;8.660;2024-03-23T05:08:53;1.00;;;0.80;;
13114;SDS011;6623;52.120;8.660;2024-03-23T05:11:19;1.23;;;0.90;;
13114;SDS011;6623;52.120;8.660;2024-03-23T05:13:45;1.43;;;0.90;;
13114;SDS011;6623;52.120;8.660;2024-03-23T05:16:11;1.43;;;1.00;;
13114;SDS011;6623;52.120;8.660;2024-03-23T05:18:37;0.90;;;0.80;;
13114;SDS011;6623;52.120;8.660;2024-03-23T05:21:02;1.77;;;0.90;;
13114;SDS011;6623;52.120;8.660;2024-03-23T05:23:28;1.60;;;1.00;;
13114;SDS011;6623;52.120;8.660;2024-03-23T05:25:54;1.20;;;0.90;;
13114;SDS011;6623;52.120;8.660;2024-03-23T05:28:20;1.03;;;0.80;;
13114;SDS011;6623;52.120;8.660;2024-03-23T05:30:52;1.30;;;0.90;;
13114;SDS011;6623;52.120;8.660;2024-03-23T05:33:19;1.33;;;0.90;;
13114;SDS011;6623;52.120;8.660;2024-03-23T05:35:45;1.90;;;1.20;;
13114;SDS011;6623;52.120;8.660;2024-03-23T05:38:12;1.33;;;0.90;;
13114;SDS011;6623;52.120;8.660;2024-03-23T05:40:38;0.97;;;0.70;;
13114;SDS011;6623;52.120;8.660;2024-03-23T05:43:05;1.37;;;0.90;;
13114;SDS011;6623;52.120;8.660;2024-03-23T05:45:31;1.33;;;0.83;;
13114;SDS011;6623;52.120;8.660;2024-03-23T05:47:57;1.47;;;0.90;;
13114;SDS011;6623;52.120;8.660;2024-03-23T05:50:23;1.30;;;0.90;;
13114;SDS011;6623;52.120;8.660;2024-03-23T05:52:49;1.57;;;1.00;;
13114;SDS011;6623;52.120;8.660;2024-03-23T05:55:15;1.23;;;0.90;;
13114;SDS011;6623;52.120;8.660;2024-03-23T05:57:40;1.23;;;0.90;;
13114;SDS011;6623;52.120;8.660;2024-03-23T06:00:06;1.37;;;1.03;;
13114;SDS011;6623;52.120;8.660;2024-03-23T06:02:41;1.30;;;1.17;;
13114;SDS011;6623;52.120;8.660;2024-03-23T06:05:10;1.43;;;1.00;;
13114;SDS011;6623;52.120;8.660;2024-03-23T06:07:37;1.20;;;0.97;;
13114;SDS011;6623;52.120;8.660;2024-03-23T06:10:02;1.37;;;0.90;;
13114;SDS011;6623;52.120;8.660;2024-03-23T06:12:28;1.20;;;0.90;;
13114;SDS011;6623;52.120;8.660;2024-03-23T06:14:54;1.07;;;0.90;;
13114;SDS011;6623;52.120;8.660;2024-03-23T06:17:19;1.10;;;0.80;;
13114;SDS011;6623;52.120;8.660;2024-03-23T06:19:45;1.20;;;0.80;;
13114;SDS011;6623;52.120;8.660;2024-03-23T06:22:11;1.00;;;0.90;;
13114;SDS011;6623;52.120;8.660;2024-03-23T06:24:36;1.53;;;0.97;;
13114;SDS011;6623;52.120;8.660;2024-03-23T06:27:02;1.20;;;1.00;;
13114;SDS011;6623;52.120;8.660;2024-03-23T06:29:27;1.00;;;0.90;;
13114;SDS011;6623;52.120;8.660;2024-03-23T06:31:53;1.83;;;0.90;;
13114;SDS011;6623;52.120;8.660;2024-03-23T06:34:19;0.90;;;0.80;;
13114;SDS011;6623;52.120;8.660;2024-03-23T06:36:46;1.43;;;0.90;;
13114;SDS011;6623;52.120;8.660;2024-03-23T06:39:12;0.93;;;0.80;;
13114;SDS011;6623;52.120;8.660;2024-03-23T06:41:40;1.20;;;0.97;;
13114;SDS011;6623;52.120;8.660;2024-03-23T06:44:16;2.07;;;1.10;;
13114;SDS011;6623;52.120;8.660;2024-03-23T06:46:42;1.50;;;0.87;;
13114;SDS011;6623;52.120;8.660;2024-03-23T06:49:08;1.27;;;0.80;;
13114;SDS011;6623;52.120;8.660;2024-03-23T06:51:33;1.33;;;0.90;;
13114;SDS011;6623;52.120;8.660;2024-03-23T06:53:59;1.13;;;0.83;;
13114;SDS011;6623;52.120;8.660;2024-03-23T06:56:24;1.20;;;1.07;;
13114;SDS011;6623;52.120;8.660;2024-03-23T06:58:50;0.80;;;0.80;;
13114;SDS011;6623;52.120;8.660;2024-03-23T07:01:15;1.17;;;0.90;;
13114;SDS011;6623;52.120;8.660;2024-03-23T07:03:41;1.07;;;0.80;;
13114;SDS011;6623;52.120;8.660;2024-03-23T07:06:06;1.70;;;0.90;;
13114;SDS011;6623;52.120;8.660;2024-03-23T07:08:34;1.63;;;0.97;;
13114;SDS011;6623;52.120;8.660;2024-03-23T07:10:59;1.73;;;1.00;;
13114;SDS011;6623;52.120;8.660;2024-03-23T07:13:25;1.43;;;0.80;;
13114;SDS011;6623;52.120;8.660;2024-03-23T07:15:53;1.70;;;0.87;;
13114;SDS011;6623;52.120;8.660;2024-03-23T07:18:20;1.50;;;1.00;;
13114;SDS011;6623;52.120;8.660;2024-03-23T07:20:55;1.40;;;0.80;;
13114;SDS011;6623;52.120;8.660;2024-03-23T07:23:21;0.93;;;0.83;;
13114;SDS011;6623;52.120;8.660;2024-03-23T07:25:57;1.97;;;0.90;;
13114;SDS011;6623;52.120;8.660;2024-03-23T07:28:22;1.03;;;0.70;;
13114;SDS011;6623;52.120;8.660;2024-03-23T07:30:48;0.83;;;0.70;;
13114;SDS011;6623;52.120;8.660;2024-03-23T07:33:23;1.30;;;0.90;;
13114;SDS011;6623;52.120;8.660;2024-03-23T07:35:49;1.77;;;0.90;;
13114;SDS011;6623;52.120;8.660;2024-03-23T07:38:14;0.90;;;0.80;;
13114;SDS011;6623;52.120;8.660;2024-03-23T07:40:39;1.47;;;0.93;;
13114;SDS011;6623;52.120;8.660;2024-03-23T07:43:05;0.93;;;0.77;;
13114;SDS011;6623;52.120;8.660;2024-03-23T07:45:30;1.07;;;0.97;;
13114;SDS011;6623;52.120;8.660;2024-03-23T07:47:56;1.13;;;0.90;;
13114;SDS011;6623;52.120;8.660;2024-03-23T07:50:21;1.30;;;0.97;;
13114;SDS011;6623;52.120;8.660;2024-03-23T07:52:47;0.97;;;0.87;;
13114;SDS011;6623;52.120;8.660;2024-03-23T07:55:12;1.20;;;0.97;;
13114;SDS011;6623;52.120;8.660;2024-03-23T07:57:38;1.83;;;1.10;;
13114;SDS011;6623;52.120;8.660;2024-03-23T08:00:03;1.83;;;0.83;;
13114;SDS011;6623;52.120;8.660;2024-03-23T08:02:30;1.10;;;0.80;;
13114;SDS011;6623;52.120;8.660;2024-03-23T08:04:55;1.10;;;0.80;;
13114;SDS011;6623;52.120;8.660;2024-03-23T08:07:21;1.07;;;0.70;;
13114;SDS011;6623;52.120;8.660;2024-03-23T08:09:46;1.93;;;1.10;;
13114;SDS011;6623;52.120;8.660;2024-03-23T08:12:12;1.37;;;0.90;;
13114;SDS011;6623;52.120;8.660;2024-03-23T08:14:37;0.90;;;0.70;;
13114;SDS011;6623;52.120;8.660;2024-03-23T08:17:03;1.40;;;0.87;;
13114;SDS011;6623;52.120;8.660;2024-03-23T08:19:28;0.97;;;0.80;;
13114;SDS011;6623;52.120;8.660;2024-03-23T08:21:54;1.70;;;1.00;;
13114;SDS011;6623;52.120;8.660;2024-03-23T08:24:19;1.40;;;0.90;;
13114;SDS011;6623;52.120;8.660;2024-03-23T08:26:45;1.37;;;0.90;;
13114;SDS011;6623;52.120;8.660;2024-03-23T08:29:10;1.83;;;1.00;;
13114;SDS011;6623;52.120;8.660;2024-03-23T08:31:36;1.20;;;0.80;;
13114;SDS011;6623;52.120;8.660;2024-03-23T08:34:01;1.70;;;1.00;;
13114;SDS011;6623;52.120;8.660;2024-03-23T08:36:27;0.70;;;0.60;;
13114;SDS011;6623;52.120;8.660;2024-03-23T08:38:53;1.00;;;0.80;;
13114;SDS011;6623;52.120;8.660;2024-03-23T08:41:19;1.67;;;0.90;;
13114;SDS011;6623;52.120;8.660;2024-03-23T08:43:45;1.03;;;0.80;;
13114;SDS011;6623;52.120;8.660;2024-03-23T08:46:11;0.90;;;0.80;;
13114;SDS011;6623;52.120;8.660;2024-03-23T08:48:39;1.10;;;0.80;;
13114;SDS011;6623;52.120;8.660;2024-03-23T08:51:06;1.43;;;0.90;;
13114;SDS011;6623;52.120;8.660;2024-03-23T08:53:33;1.20;;;0.80;;
13114;SDS011;6623;52.120;8.660;2024-03-23T08:55:59;0.90;;;0.80;;
13114;SDS011;6623;52.120;8.660;2024-03-23T08:58:29;1.20;;;0.80;;
13114;SDS011;6623;52.120;8.660;2024-03-23T09:00:56;1.53;;;0.90;;
13114;SDS011;6623;52.120;8.660;2024-03-23T09:03:25;1.00;;;0.80;;
13114;SDS011;6623;52.120;8.660;2024-03-23T09:05:51;1.50;;;0.90;;
13114;SDS011;6623;52.120;8.660;2024-03-23T09:08:17;1.33;;;0.80;;
13114;SDS011;6623;52.120;8.660;2024-03-23T09:10:43;1.33;;;0.90;;
13114;SDS011;6623;52.120;8.660;2024-03-23T09:13:09;1.60;;;0.87;;
13114;SDS011;6623;52.120;8.660;2024-03-23T09:15:35;1.77;;;0.90;;
13114;SDS011;6623;52.120;8.660;2024-03-23T09:18:03;1.67;;;1.00;;
13114;SDS011;6623;52.120;8.660;2024-03-23T09:20:29;2.30;;;0.80;;
13114;SDS011;6623;52.120;8.660;2024-03-23T09:22:57;0.90;;;0.80;;
13114;SDS011;6623;52.120;8.660;2024-03-23T09:25:23;1.20;;;0.87;;
13114;SDS011;6623;52.120;8.660;2024-03-23T09:27:49;0.70;;;0.60;;
13114;SDS011;6623;52.120;8.660;2024-03-23T09:30:15;1.13;;;0.90;;
13114;SDS011;6623;52.120;8.660;2024-03-23T09:32:42;1.03;;;0.90;;
13114;SDS011;6623;52.120;8.660;2024-03-23T09:35:08;1.20;;;0.80;;
13114;SDS011;6623;52.120;8.660;2024-03-23T09:37:34;1.47;;;0.70;;
13114;SDS011;6623;52.120;8.660;2024-03-23T09:40:00;1.90;;;0.90;;
13114;SDS011;6623;52.120;8.660;2024-03-23T09:42:25;0.93;;;0.70;;
13114;SDS011;6623;52.120;8.660;2024-03-23T09:44:51;1.00;;;0.90;;
13114;SDS011;6623;52.120;8.660;2024-03-23T09:47:17;1.40;;;0.93;;
13114;SDS011;6623;52.120;8.660;2024-03-23T09:49:43;1.10;;;0.80;;
13114;SDS011;6623;52.120;8.660;2024-03-23T09:52:08;1.60;;;0.90;;
13114;SDS011;6623;52.120;8.660;2024-03-23T09:54:34;1.23;;;0.80;;
13114;SDS011;6623;52.120;8.660;2024-03-23T09:57:00;1.43;;;0.80;;
13114;SDS011;6623;52.120;8.660;2024-03-23T09:59:25;1.10;;;0.80;;
13114;SDS011;6623;52.120;8.660;2024-03-23T10:01:51;1.10;;;0.77;;
13114;SDS011;6623;52.120;8.660;2024-03-23T10:04:41;0.80;;;0.80;;
13114;SDS011;6623;52.120;8.660;2024-03-23T10:07:18;1.07;;;0.90;;
13114;SDS011;6623;52.120;8.660;2024-03-23T10:09:44;0.73;;;0.73;;
13114;SDS011;6623;52.120;8.660;2024-03-23T10:12:12;1.10;;;0.73;;
13114;SDS011;6623;52.120;8.660;2024-03-23T10:14:39;1.40;;;0.80;;
13114;SDS011;6623;52.120;8.660;2024-03-23T10:17:23;1.13;;;0.77;;
13114;SDS011;6623;52.120;8.660;2024-03-23T10:19:49;1.63;;;0.93;;
13114;SDS011;6623;52.120;8.660;2024-03-23T10:22:19;1.00;;;0.70;;
13114;SDS011;6623;52.120;8.660;2024-03-23T10:24:47;1.00;;;0.77;;
13114;SDS011;6623;52.120;8.660;2024-03-23T10:27:17;0.83;;;0.70;;
13114;SDS011;6623;52.120;8.660;2024-03-23T10:29:47;1.60;;;0.90;;
13114;SDS011;6623;52.120;8.660;2024-03-23T10:32:14;0.90;;;0.70;;
13114;SDS011;6623;52.120;8.660;2024-03-23T10:34:41;1.30;;;0.70;;
13114;SDS011;6623;52.120;8.660;2024-03-23T10:37:07;1.60;;;0.70;;
13114;SDS011;6623;52.120;8.660;2024-03-23T10:39:40;1.17;;;0.80;;
13114;SDS011;6623;52.120;8.660;2024-03-23T10:42:09;1.10;;;0.80;;
13114;SDS011;6623;52.120;8.660;2024-03-23T10:44:38;1.10;;;0.70;;
13114;SDS011;6623;52.120;8.660;2024-03-23T10:47:04;1.10;;;0.83;;
13114;SDS011;6623;52.120;8.660;2024-03-23T10:49:30;1.77;;;0.90;;
13114;SDS011;6623;52.120;8.660;2024-03-23T10:51:58;1.23;;;0.70;;
13114;SDS011;6623;52.120;8.660;2024-03-23T10:54:25;0.90;;;0.80;;
13114;SDS011;6623;52.120;8.660;2024-03-23T10:57:02;1.03;;;0.70;;
13114;SDS011;6623;52.120;8.660;2024-03-23T10:59:31;0.67;;;0.60;;
13114;SDS011;6623;52.120;8.660;2024-03-23T11:01:58;0.97;;;0.70;;
13114;SDS011;6623;52.120;8.660;2024-03-23T11:06:57;0.60;;;0.60;;
13114;SDS011;6623;52.120;8.660;2024-03-23T11:09:39;0.93;;;0.80;;
13114;SDS011;6623;52.120;8.660;2024-03-23T11:15:04;0.97;;;0.70;;
13114;SDS011;6623;52.120;8.660;2024-03-23T11:17:31;0.97;;;0.80;;
13114;SDS011;6623;52.120;8.660;2024-03-23T11:19:57;1.63;;;0.80;;
13114;SDS011;6623;52.120;8.660;2024-03-23T11:22:42;1.07;;;0.70;;
13114;SDS011;6623;52.120;8.660;2024-03-23T11:25:15;0.83;;;0.70;;
13114;SDS011;6623;52.120;8.660;2024-03-23T11:27:42;1.63;;;0.80;;
13114;SDS011;6623;52.120;8.660;2024-03-23T11:30:10;0.83;;;0.60;;
13114;SDS011;6623;52.120;8.660;2024-03-23T11:32:48;1.23;;;0.80;;
13114;SDS011;6623;52.120;8.660;2024-03-23T11:38:15;0.60;;;0.60;;
13114;SDS011;6623;52.120;8.660;2024-03-23T11:40:48;1.57;;;0.90;;
13114;SDS011;6623;52.120;8.660;2024-03-23T11:43:15;1.47;;;1.00;;
13114;SDS011;6623;52.120;8.660;2024-03-23T11:48:09;0.83;;;0.60;;
13114;SDS011;6623;52.120;8.660;2024-03-23T11:50:39;0.97;;;0.73;;
13114;SDS011;6623;52.120;8.660;2024-03-23T11:55:39;0.90;;;0.83;;
13114;SDS011;6623;52.120;8.660;2024-03-23T11:58:15;0.50;;;0.50;;
13114;SDS011;6623;52.120;8.660;2024-03-23T12:00:51;1.00;;;0.80;;
13114;SDS011;6623;52.120;8.660;2024-03-23T12:03:24;1.13;;;0.70;;
13114;SDS011;6623;52.120;8.660;2024-03-23T12:05:52;1.03;;;0.67;;
13114;SDS011;6623;52.120;8.660;2024-03-23T12:10:47;0.80;;;0.70;;
13114;SDS011;6623;52.120;8.660;2024-03-23T12:13:19;0.60;;;0.60;;
13114;SDS011;6623;52.120;8.660;2024-03-23T12:15:47;1.43;;;0.83;;
13114;SDS011;6623;52.120;8.660;2024-03-23T12:18:14;0.90;;;0.57;;
13114;SDS011;6623;52.120;8.660;2024-03-23T12:20:40;0.73;;;0.60;;
13114;SDS011;6623;52.120;8.660;2024-03-23T12:23:09;0.70;;;0.60;;
13114;SDS011;6623;52.120;8.660;2024-03-23T12:25:38;0.70;;;0.50;;
13114;SDS011;6623;52.120;8.660;2024-03-23T12:28:05;0.90;;;0.70;;
13114;SDS011;6623;52.120;8.660;2024-03-23T12:30:31;1.33;;;0.77;;
13114;SDS011;6623;52.120;8.660;2024-03-23T12:32:58;0.80;;;0.60;;
13114;SDS011;6623;52.120;8.660;2024-03-23T12:35:24;1.30;;;0.73;;
13114;SDS011;6623;52.120;8.660;2024-03-23T12:37:49;0.70;;;0.60;;
13114;SDS011;6623;52.120;8.660;2024-03-23T12:40:15;0.63;;;0.53;;
13114;SDS011;6623;52.120;8.660;2024-03-23T12:42:40;0.90;;;0.67;;
13114;SDS011;6623;52.120;8.660;2024-03-23T12:45:06;0.77;;;0.60;;
13114;SDS011;6623;52.120;8.660;2024-03-23T12:47:32;0.90;;;0.80;;
13114;SDS011;6623;52.120;8.660;2024-03-23T12:49:57;1.10;;;0.67;;
13114;SDS011;6623;52.120;8.660;2024-03-23T12:52:23;1.07;;;0.60;;
13114;SDS011;6623;52.120;8.660;2024-03-23T12:54:53;0.97;;;0.50;;
13114;SDS011;6623;52.120;8.660;2024-03-23T12:57:22;1.03;;;0.53;;
13114;SDS011;6623;52.120;8.660;2024-03-23T12:59:49;0.80;;;0.60;;
13114;SDS011;6623;52.120;8.660;2024-03-23T13:02:16;0.83;;;0.60;;
13114;SDS011;6623;52.120;8.660;2024-03-23T13:04:54;1.03;;;0.67;;
13114;SDS011;6623;52.120;8.660;2024-03-23T13:07:21;0.83;;;0.70;;
13114;SDS011;6623;52.120;8.660;2024-03-23T13:09:50;1.33;;;0.70;;
13114;SDS011;6623;52.120;8.660;2024-03-23T13:12:16;1.20;;;0.70;;
13114;SDS011;6623;52.120;8.660;2024-03-23T13:14:43;0.60;;;0.50;;
13114;SDS011;6623;52.120;8.660;2024-03-23T13:17:09;0.90;;;0.57;;
13114;SDS011;6623;52.120;8.660;2024-03-23T13:19:35;1.13;;;0.70;;
13114;SDS011;6623;52.120;8.660;2024-03-23T13:22:01;1.27;;;0.80;;
13114;SDS011;6623;52.120;8.660;2024-03-23T13:24:30;0.87;;;0.60;;
13114;SDS011;6623;52.120;8.660;2024-03-23T13:26:56;0.87;;;0.60;;
13114;SDS011;6623;52.120;8.660;2024-03-23T13:29:22;0.93;;;0.63;;
13114;SDS011;6623;52.120;8.660;2024-03-23T13:31:49;1.00;;;0.60;;
13114;SDS011;6623;52.120;8.660;2024-03-23T13:34:15;0.70;;;0.60;;
13114;SDS011;6623;52.120;8.660;2024-03-23T13:36:41;0.80;;;0.60;;
13114;SDS011;6623;52.120;8.660;2024-03-23T13:39:08;1.03;;;0.50;;
13114;SDS011;6623;52.120;8.660;2024-03-23T13:41:39;1.27;;;0.70;;
13114;SDS011;6623;52.120;8.660;2024-03-23T13:44:09;0.73;;;0.60;;
13114;SDS011;6623;52.120;8.660;2024-03-23T13:46:40;0.90;;;0.50;;
13114;SDS011;6623;52.120;8.660;2024-03-23T13:49:13;1.00;;;0.70;;
13114;SDS011;6623;52.120;8.660;2024-03-23T13:51:51;0.63;;;0.60;;
13114;SDS011;6623;52.120;8.660;2024-03-23T13:54:16;0.90;;;0.60;;
13114;SDS011;6623;52.120;8.660;2024-03-23T13:56:42;0.53;;;0.50;;
13114;SDS011;6623;52.120;8.660;2024-03-23T13:59:08;0.77;;;0.70;;
13114;SDS011;6623;52.120;8.660;2024-03-23T14:01:33;0.40;;;0.40;;
13114;SDS011;6623;52.120;8.660;2024-03-23T14:03:59;0.70;;;0.60;;
13114;SDS011;6623;52.120;8.660;2024-03-23T14:06:24;0.73;;;0.60;;
13114;SDS011;6623;52.120;8.660;2024-03-23T14:08:50;0.50;;;0.50;;
13114;SDS011;6623;52.120;8.660;2024-03-23T14:11:17;0.60;;;0.40;;
13114;SDS011;6623;52.120;8.660;2024-03-23T14:13:43;0.70;;;0.60;;
13114;SDS011;6623;52.120;8.660;2024-03-23T14:16:09;1.00;;;0.60;;
13114;SDS011;6623;52.120;8.660;2024-03-23T14:18:35;1.03;;;0.60;;
13114;SDS011;6623;52.120;8.660;2024-03-23T14:21:01;0.50;;;0.50;;
13114;SDS011;6623;52.120;8.660;2024-03-23T14:23:27;0.90;;;0.60;;
13114;SDS011;6623;52.120;8.660;2024-03-23T14:25:54;0.50;;;0.43;;
13114;SDS011;6623;52.120;8.660;2024-03-23T14:28:21;1.03;;;0.60;;
13114;SDS011;6623;52.120;8.660;2024-03-23T14:30:47;0.50;;;0.47;;
13114;SDS011;6623;52.120;8.660;2024-03-23T14:33:14;0.50;;;0.50;;
13114;SDS011;6623;52.120;8.660;2024-03-23T14:35:40;0.97;;;0.63;;
13114;SDS011;6623;52.120;8.660;2024-03-23T14:38:06;0.77;;;0.60;;
13114;SDS011;6623;52.120;8.660;2024-03-23T14:40:31;0.67;;;0.50;;
13114;SDS011;6623;52.120;8.660;2024-03-23T14:42:57;0.80;;;0.60;;
13114;SDS011;6623;52.120;8.660;2024-03-23T14:45:22;0.97;;;0.60;;
13114;SDS011;6623;52.120;8.660;2024-03-23T14:47:49;0.50;;;0.50;;
13114;SDS011;6623;52.120;8.660;2024-03-23T14:50:18;0.80;;;0.70;;
13114;SDS011;6623;52.120;8.660;2024-03-23T14:52:44;0.90;;;0.50;;
13114;SDS011;6623;52.120;8.660;2024-03-23T14:55:10;0.70;;;0.60;;
13114;SDS011;6623;52.120;8.660;2024-03-23T14:57:36;0.77;;;0.60;;
13114;SDS011;6623;52.120;8.660;2024-03-23T15:00:04;0.70;;;0.57;;
13114;SDS011;6623;52.120;8.660;2024-03-23T15:02:33;0.50;;;0.50;;
13114;SDS011;6623;52.120;8.660;2024-03-23T15:04:59;0.90;;;0.60;;
13114;SDS011;6623;52.120;8.660;2024-03-23T15:07:25;0.67;;;0.63;;
13114;SDS011;6623;52.120;8.660;2024-03-23T15:09:51;0.60;;;0.50;;
13114;SDS011;6623;52.120;8.660;2024-03-23T15:12:16;1.03;;;0.50;;
13114;SDS011;6623;52.120;8.660;2024-03-23T15:14:41;1.13;;;0.60;;
13114;SDS011;6623;52.120;8.660;2024-03-23T15:17:07;0.67;;;0.53;;
13114;SDS011;6623;52.120;8.660;2024-03-23T15:19:34;0.60;;;0.50;;
13114;SDS011;6623;52.120;8.660;2024-03-23T15:21:59;0.50;;;0.50;;
13114;SDS011;6623;52.120;8.660;2024-03-23T15:24:25;0.40;;;0.40;;
13114;SDS011;6623;52.120;8.660;2024-03-23T15:26:50;0.53;;;0.53;;
13114;SDS011;6623;52.120;8.660;2024-03-23T15:29:17;0.70;;;0.50;;
13114;SDS011;6623;52.120;8.660;2024-03-23T15:31:43;0.70;;;0.50;;
13114;SDS011;6623;52.120;8.660;2024-03-23T15:34:10;0.87;;;0.60;;
13114;SDS011;6623;52.120;8.660;2024-03-23T15:36:36;1.20;;;0.70;;
13114;SDS011;6623;52.120;8.660;2024-03-23T15:39:03;0.60;;;0.50;;
13114;SDS011;6623;52.120;8.660;2024-03-23T15:41:29;0.50;;;0.50;;
13114;SDS011;6623;52.120;8.660;2024-03-23T15:43:55;0.80;;;0.60;;
13114;SDS011;6623;52.120;8.660;2024-03-23T15:46:21;0.90;;;0.63;;
13114;SDS011;6623;52.120;8.660;2024-03-23T15:48:47;0.90;;;0.60;;
13114;SDS011;6623;52.120;8.660;2024-03-23T15:51:13;0.70;;;0.47;;
13114;SDS011;6623;52.120;8.660;2024-03-23T15:53:39;0.60;;;0.50;;
13114;SDS011;6623;52.120;8.660;2024-03-23T15:56:05;0.57;;;0.40;;
13114;SDS011;6623;52.120;8.660;2024-03-23T15:58:31;0.80;;;0.50;;
13114;SDS011;6623;52.120;8.660;2024-03-23T16:01:02;0.67;;;0.50;;
13114;SDS011;6623;52.120;8.660;2024-03-23T16:03:36;0.50;;;0.50;;
13114;SDS011;6623;52.120;8.660;2024-03-23T16:06:03;0.83;;;0.60;;
13114;SDS011;6623;52.120;8.660;2024-03-23T16:08:29;0.50;;;0.40;;